sensor_id;sensor_type;location;lat;lon;timestamp;temperature;humidity
22212;DHT22;11275;52.488;13.462;2023-06-24T00:00:56;19.40;99.90
22212;DHT22;11275;52.488;13.462;2023-06-24T00:03:21;19.40;99.90
22212;DHT22;11275;52.488;13.462;2023-06-24T00:05:47;19.40;99.90
22212;DHT22;11275;52.488;13.462;2023-06-24T00:08:18;19.30;99.90
22212;DHT22;11275;52.488;13.462;2023-06-24T00:10:46;19.40;99.90
22212;DHT22;11275;52.488;13.462;2023-06-24T00:13:12;19.40;99.90
22212;DHT22;11275;52.488;13.462;2023-06-24T00:15:38;19.30;99.90
22212;DHT22;11275;52.488;13.462;2023-06-24T00:18:11;19.40;99.90
22212;DHT22;11275;52.488;13.462;2023-06-24T00:20:37;19.30;99.90
22212;DHT22;11275;52.488;13.462;2023-06-24T00:23:03;19.30;99.90
22212;DHT22;11275;52.488;13.462;2023-06-24T00:25:29;19.30;99.90
22212;DHT22;11275;52.488;13.462;2023-06-24T00:27:55;19.30;99.90
22212;DHT22;11275;52.488;13.462;2023-06-24T00:30:22;19.20;99.90
22212;DHT22;11275;52.488;13.462;2023-06-24T00:32:47;19.20;99.90
22212;DHT22;11275;52.488;13.462;2023-06-24T00:35:13;19.10;99.90
22212;DHT22;11275;52.488;13.462;2023-06-24T00:37:39;19.10;99.90
22212;DHT22;11275;52.488;13.462;2023-06-24T00:40:05;19.10;99.90
22212;DHT22;11275;52.488;13.462;2023-06-24T00:42:32;19.10;99.90
22212;DHT22;11275;52.488;13.462;2023-06-24T00:44:58;19.10;99.90
22212;DHT22;11275;52.488;13.462;2023-06-24T00:47:23;19.00;99.90
22212;DHT22;11275;52.488;13.462;2023-06-24T00:49:49;19.00;99.90
22212;DHT22;11275;52.488;13.462;2023-06-24T00:52:16;19.00;99.90
22212;DHT22;11275;52.488;13.462;2023-06-24T00:54:44;19.00;99.90
22212;DHT22;11275;52.488;13.462;2023-06-24T00:57:10;19.00;99.90
22212;DHT22;11275;52.488;13.462;2023-06-24T00:59:37;18.90;99.90
22212;DHT22;11275;52.488;13.462;2023-06-24T01:02:04;18.90;99.90
22212;DHT22;11275;52.488;13.462;2023-06-24T01:04:31;18.90;99.90
22212;DHT22;11275;52.488;13.462;2023-06-24T01:06:58;18.90;99.90
22212;DHT22;11275;52.488;13.462;2023-06-24T01:09:25;18.90;99.90
22212;DHT22;11275;52.488;13.462;2023-06-24T01:11:51;18.90;99.90
22212;DHT22;11275;52.488;13.462;2023-06-24T01:14:16;18.90;99.90
22212;DHT22;11275;52.488;13.462;2023-06-24T01:17:09;18.90;99.90
22212;DHT22;11275;52.488;13.462;2023-06-24T01:29:16;18.70;99.90
22212;DHT22;11275;52.488;13.462;2023-06-24T01:32:01;18.70;99.90
22212;DHT22;11275;52.488;13.462;2023-06-24T01:34:42;18.70;99.90
22212;DHT22;11275;52.488;13.462;2023-06-24T01:37:17;18.70;99.90
22212;DHT22;11275;52.488;13.462;2023-06-24T01:40:03;18.70;99.90
22212;DHT22;11275;52.488;13.462;2023-06-24T01:42:44;18.70;99.90
22212;DHT22;11275;52.488;13.462;2023-06-24T01:45:15;18.60;99.90
22212;DHT22;11275;52.488;13.462;2023-06-24T01:47:45;18.70;99.90
22212;DHT22;11275;52.488;13.462;2023-06-24T01:50:13;18.60;99.90
22212;DHT22;11275;52.488;13.462;2023-06-24T01:52:43;18.60;99.90
22212;DHT22;11275;52.488;13.462;2023-06-24T01:55:11;18.60;99.90
22212;DHT22;11275;52.488;13.462;2023-06-24T01:57:39;18.60;99.90
22212;DHT22;11275;52.488;13.462;2023-06-24T02:00:07;18.60;99.90
22212;DHT22;11275;52.488;13.462;2023-06-24T02:02:34;18.50;99.90
22212;DHT22;11275;52.488;13.462;2023-06-24T02:05:02;18.50;99.90
22212;DHT22;11275;52.488;13.462;2023-06-24T02:07:28;18.50;99.90
22212;DHT22;11275;52.488;13.462;2023-06-24T02:09:58;18.50;99.90
22212;DHT22;11275;52.488;13.462;2023-06-24T02:12:24;18.50;99.90
22212;DHT22;11275;52.488;13.462;2023-06-24T02:14:52;18.50;99.90
22212;DHT22;11275;52.488;13.462;2023-06-24T02:17:20;18.50;99.90
22212;DHT22;11275;52.488;13.462;2023-06-24T02:19:48;18.50;99.90
22212;DHT22;11275;52.488;13.462;2023-06-24T02:22:14;18.50;99.90
22212;DHT22;11275;52.488;13.462;2023-06-24T02:24:41;18.50;99.90
22212;DHT22;11275;52.488;13.462;2023-06-24T02:27:08;18.50;99.90
22212;DHT22;11275;52.488;13.462;2023-06-24T02:29:35;18.50;99.90
22212;DHT22;11275;52.488;13.462;2023-06-24T02:32:01;18.40;99.90
22212;DHT22;11275;52.488;13.462;2023-06-24T02:34:27;18.40;99.90
22212;DHT22;11275;52.488;13.462;2023-06-24T02:36:53;18.40;99.90
22212;DHT22;11275;52.488;13.462;2023-06-24T02:39:19;18.40;99.90
22212;DHT22;11275;52.488;13.462;2023-06-24T02:41:45;18.40;99.90
22212;DHT22;11275;52.488;13.462;2023-06-24T02:44:13;18.40;99.90
22212;DHT22;11275;52.488;13.462;2023-06-24T02:46:40;18.40;99.90
22212;DHT22;11275;52.488;13.462;2023-06-24T02:49:06;18.40;99.90
22212;DHT22;11275;52.488;13.462;2023-06-24T02:51:33;18.40;99.90
22212;DHT22;11275;52.488;13.462;2023-06-24T02:54:00;18.30;99.90
22212;DHT22;11275;52.488;13.462;2023-06-24T02:56:27;18.30;99.90
22212;DHT22;11275;52.488;13.462;2023-06-24T02:58:54;18.30;99.90
22212;DHT22;11275;52.488;13.462;2023-06-24T03:01:20;18.30;99.90
22212;DHT22;11275;52.488;13.462;2023-06-24T03:03:54;18.20;99.90
22212;DHT22;11275;52.488;13.462;2023-06-24T03:06:20;18.20;99.90
22212;DHT22;11275;52.488;13.462;2023-06-24T03:08:46;18.20;99.90
22212;DHT22;11275;52.488;13.462;2023-06-24T03:11:13;18.30;99.90
22212;DHT22;11275;52.488;13.462;2023-06-24T03:13:39;18.30;99.90
22212;DHT22;11275;52.488;13.462;2023-06-24T03:16:05;18.30;99.90
22212;DHT22;11275;52.488;13.462;2023-06-24T03:18:31;18.30;99.90
22212;DHT22;11275;52.488;13.462;2023-06-24T03:20:57;18.30;99.90
22212;DHT22;11275;52.488;13.462;2023-06-24T03:23:22;18.30;99.90
22212;DHT22;11275;52.488;13.462;2023-06-24T03:25:48;18.30;99.90
22212;DHT22;11275;52.488;13.462;2023-06-24T03:28:14;18.40;99.90
22212;DHT22;11275;52.488;13.462;2023-06-24T03:30:39;18.30;99.90
22212;DHT22;11275;52.488;13.462;2023-06-24T03:33:05;18.30;99.90
22212;DHT22;11275;52.488;13.462;2023-06-24T03:35:31;18.40;99.90
22212;DHT22;11275;52.488;13.462;2023-06-24T03:37:58;18.40;99.90
22212;DHT22;11275;52.488;13.462;2023-06-24T03:40:24;18.40;99.90
22212;DHT22;11275;52.488;13.462;2023-06-24T03:42:49;18.40;99.90
22212;DHT22;11275;52.488;13.462;2023-06-24T03:45:15;18.40;99.90
22212;DHT22;11275;52.488;13.462;2023-06-24T03:47:40;18.30;99.90
22212;DHT22;11275;52.488;13.462;2023-06-24T03:50:06;18.30;99.90
22212;DHT22;11275;52.488;13.462;2023-06-24T03:52:32;18.20;99.90
22212;DHT22;11275;52.488;13.462;2023-06-24T03:54:58;18.20;99.90
22212;DHT22;11275;52.488;13.462;2023-06-24T03:57:24;18.20;99.90
22212;DHT22;11275;52.488;13.462;2023-06-24T03:59:49;18.20;99.90
22212;DHT22;11275;52.488;13.462;2023-06-24T04:02:15;18.10;99.90
22212;DHT22;11275;52.488;13.462;2023-06-24T04:04:41;18.20;99.90
22212;DHT22;11275;52.488;13.462;2023-06-24T04:07:06;18.10;99.90
22212;DHT22;11275;52.488;13.462;2023-06-24T04:09:35;18.10;99.90
22212;DHT22;11275;52.488;13.462;2023-06-24T04:12:01;18.00;99.90
22212;DHT22;11275;52.488;13.462;2023-06-24T04:14:28;18.10;99.90
22212;DHT22;11275;52.488;13.462;2023-06-24T04:16:53;18.10;99.90
22212;DHT22;11275;52.488;13.462;2023-06-24T04:19:19;18.10;99.90
22212;DHT22;11275;52.488;13.462;2023-06-24T04:21:45;18.10;99.90
22212;DHT22;11275;52.488;13.462;2023-06-24T04:24:10;18.10;99.90
22212;DHT22;11275;52.488;13.462;2023-06-24T04:26:36;18.00;99.90
22212;DHT22;11275;52.488;13.462;2023-06-24T04:29:01;18.00;99.90
22212;DHT22;11275;52.488;13.462;2023-06-24T04:31:28;18.00;99.90
22212;DHT22;11275;52.488;13.462;2023-06-24T04:33:54;18.00;99.90
22212;DHT22;11275;52.488;13.462;2023-06-24T04:36:19;18.00;99.90
22212;DHT22;11275;52.488;13.462;2023-06-24T04:38:45;18.00;99.90
22212;DHT22;11275;52.488;13.462;2023-06-24T04:41:11;18.00;99.90
22212;DHT22;11275;52.488;13.462;2023-06-24T04:43:37;18.00;99.90
22212;DHT22;11275;52.488;13.462;2023-06-24T04:46:02;18.00;99.90
22212;DHT22;11275;52.488;13.462;2023-06-24T04:48:28;18.10;99.90
22212;DHT22;11275;52.488;13.462;2023-06-24T04:50:54;18.10;99.90
22212;DHT22;11275;52.488;13.462;2023-06-24T04:53:21;18.10;99.90
22212;DHT22;11275;52.488;13.462;2023-06-24T04:55:46;18.20;99.90
22212;DHT22;11275;52.488;13.462;2023-06-24T04:58:12;18.20;99.90
22212;DHT22;11275;52.488;13.462;2023-06-24T05:00:38;18.20;99.90
22212;DHT22;11275;52.488;13.462;2023-06-24T05:03:04;18.30;99.90
22212;DHT22;11275;52.488;13.462;2023-06-24T05:05:30;18.30;99.90
22212;DHT22;11275;52.488;13.462;2023-06-24T05:07:55;18.30;99.90
22212;DHT22;11275;52.488;13.462;2023-06-24T05:10:21;18.30;99.90
22212;DHT22;11275;52.488;13.462;2023-06-24T05:12:47;18.30;99.90
22212;DHT22;11275;52.488;13.462;2023-06-24T05:15:12;18.30;99.90
22212;DHT22;11275;52.488;13.462;2023-06-24T05:17:38;18.30;99.90
22212;DHT22;11275;52.488;13.462;2023-06-24T05:20:04;18.40;99.90
22212;DHT22;11275;52.488;13.462;2023-06-24T05:22:30;18.40;99.90
22212;DHT22;11275;52.488;13.462;2023-06-24T05:24:56;18.30;99.90
22212;DHT22;11275;52.488;13.462;2023-06-24T05:27:21;18.40;99.90
22212;DHT22;11275;52.488;13.462;2023-06-24T05:29:47;18.40;99.90
22212;DHT22;11275;52.488;13.462;2023-06-24T05:32:12;18.40;99.90
22212;DHT22;11275;52.488;13.462;2023-06-24T05:34:38;18.30;99.90
22212;DHT22;11275;52.488;13.462;2023-06-24T05:37:04;18.40;99.90
22212;DHT22;11275;52.488;13.462;2023-06-24T05:39:31;18.40;99.90
22212;DHT22;11275;52.488;13.462;2023-06-24T05:41:56;18.50;99.90
22212;DHT22;11275;52.488;13.462;2023-06-24T05:44:22;18.50;99.90
22212;DHT22;11275;52.488;13.462;2023-06-24T05:46:48;18.50;99.90
22212;DHT22;11275;52.488;13.462;2023-06-24T05:49:14;18.50;99.90
22212;DHT22;11275;52.488;13.462;2023-06-24T05:51:40;18.50;99.90
22212;DHT22;11275;52.488;13.462;2023-06-24T05:54:06;18.60;99.90
22212;DHT22;11275;52.488;13.462;2023-06-24T05:57:00;18.60;99.90
22212;DHT22;11275;52.488;13.462;2023-06-24T05:59:35;18.60;99.90
22212;DHT22;11275;52.488;13.462;2023-06-24T06:02:10;18.80;99.90
22212;DHT22;11275;52.488;13.462;2023-06-24T06:04:36;18.90;99.90
22212;DHT22;11275;52.488;13.462;2023-06-24T06:07:04;18.90;99.90
22212;DHT22;11275;52.488;13.462;2023-06-24T06:09:33;19.00;99.90
22212;DHT22;11275;52.488;13.462;2023-06-24T06:11:59;19.00;99.90
22212;DHT22;11275;52.488;13.462;2023-06-24T06:14:25;19.00;99.90
22212;DHT22;11275;52.488;13.462;2023-06-24T06:16:50;19.00;99.90
22212;DHT22;11275;52.488;13.462;2023-06-24T06:19:16;19.00;99.90
22212;DHT22;11275;52.488;13.462;2023-06-24T06:21:41;18.90;99.90
22212;DHT22;11275;52.488;13.462;2023-06-24T06:24:07;18.90;99.90
22212;DHT22;11275;52.488;13.462;2023-06-24T06:26:33;19.00;99.90
22212;DHT22;11275;52.488;13.462;2023-06-24T06:28:58;18.90;99.90
22212;DHT22;11275;52.488;13.462;2023-06-24T06:31:24;18.90;99.90
22212;DHT22;11275;52.488;13.462;2023-06-24T06:33:51;19.00;99.90
22212;DHT22;11275;52.488;13.462;2023-06-24T06:36:17;18.90;99.90
22212;DHT22;11275;52.488;13.462;2023-06-24T06:38:42;19.00;99.90
22212;DHT22;11275;52.488;13.462;2023-06-24T06:41:08;19.10;99.90
22212;DHT22;11275;52.488;13.462;2023-06-24T06:43:35;19.10;99.90
22212;DHT22;11275;52.488;13.462;2023-06-24T06:46:00;19.20;99.90
22212;DHT22;11275;52.488;13.462;2023-06-24T06:48:26;19.20;99.90
22212;DHT22;11275;52.488;13.462;2023-06-24T06:50:51;19.20;99.90
22212;DHT22;11275;52.488;13.462;2023-06-24T06:53:18;19.30;99.90
22212;DHT22;11275;52.488;13.462;2023-06-24T06:55:44;19.40;99.90
22212;DHT22;11275;52.488;13.462;2023-06-24T06:58:11;19.50;99.90
22212;DHT22;11275;52.488;13.462;2023-06-24T07:00:36;19.50;99.90
22212;DHT22;11275;52.488;13.462;2023-06-24T07:03:03;19.50;99.90
22212;DHT22;11275;52.488;13.462;2023-06-24T07:05:28;19.60;99.90
22212;DHT22;11275;52.488;13.462;2023-06-24T07:07:54;19.60;99.90
22212;DHT22;11275;52.488;13.462;2023-06-24T07:10:20;19.40;99.90
22212;DHT22;11275;52.488;13.462;2023-06-24T07:12:45;19.30;99.90
22212;DHT22;11275;52.488;13.462;2023-06-24T07:15:11;19.40;99.90
22212;DHT22;11275;52.488;13.462;2023-06-24T07:17:37;19.50;99.90
22212;DHT22;11275;52.488;13.462;2023-06-24T07:20:03;19.60;99.90
22212;DHT22;11275;52.488;13.462;2023-06-24T07:22:29;19.70;99.90
22212;DHT22;11275;52.488;13.462;2023-06-24T07:24:56;19.80;99.90
22212;DHT22;11275;52.488;13.462;2023-06-24T07:27:22;19.80;99.90
22212;DHT22;11275;52.488;13.462;2023-06-24T07:29:47;19.80;99.90
22212;DHT22;11275;52.488;13.462;2023-06-24T07:32:13;19.80;99.90
22212;DHT22;11275;52.488;13.462;2023-06-24T07:34:39;19.90;99.90
22212;DHT22;11275;52.488;13.462;2023-06-24T07:37:04;20.00;99.90
22212;DHT22;11275;52.488;13.462;2023-06-24T07:39:30;20.10;99.90
22212;DHT22;11275;52.488;13.462;2023-06-24T07:41:56;20.10;99.90
22212;DHT22;11275;52.488;13.462;2023-06-24T07:44:21;20.10;99.90
22212;DHT22;11275;52.488;13.462;2023-06-24T07:46:47;20.20;99.90
22212;DHT22;11275;52.488;13.462;2023-06-24T07:49:14;20.10;99.90
22212;DHT22;11275;52.488;13.462;2023-06-24T07:51:42;20.10;99.90
22212;DHT22;11275;52.488;13.462;2023-06-24T07:54:10;20.20;99.90
22212;DHT22;11275;52.488;13.462;2023-06-24T07:56:36;20.20;99.90
22212;DHT22;11275;52.488;13.462;2023-06-24T07:59:02;20.30;99.90
22212;DHT22;11275;52.488;13.462;2023-06-24T08:01:28;20.40;99.90
22212;DHT22;11275;52.488;13.462;2023-06-24T08:03:53;20.50;99.90
22212;DHT22;11275;52.488;13.462;2023-06-24T08:06:19;20.70;99.90
22212;DHT22;11275;52.488;13.462;2023-06-24T08:08:45;20.80;99.90
22212;DHT22;11275;52.488;13.462;2023-06-24T08:11:12;20.70;99.90
22212;DHT22;11275;52.488;13.462;2023-06-24T08:13:38;20.70;99.90
22212;DHT22;11275;52.488;13.462;2023-06-24T08:16:04;20.70;99.90
22212;DHT22;11275;52.488;13.462;2023-06-24T08:18:29;20.70;99.90
22212;DHT22;11275;52.488;13.462;2023-06-24T08:20:55;20.70;99.90
22212;DHT22;11275;52.488;13.462;2023-06-24T08:23:21;20.60;99.90
22212;DHT22;11275;52.488;13.462;2023-06-24T08:28:51;20.60;99.90
22212;DHT22;11275;52.488;13.462;2023-06-24T08:31:16;20.80;99.90
22212;DHT22;11275;52.488;13.462;2023-06-24T08:33:44;21.00;99.90
22212;DHT22;11275;52.488;13.462;2023-06-24T08:36:10;21.00;99.90
22212;DHT22;11275;52.488;13.462;2023-06-24T08:38:36;21.00;99.90
22212;DHT22;11275;52.488;13.462;2023-06-24T08:41:02;20.90;99.90
22212;DHT22;11275;52.488;13.462;2023-06-24T08:43:27;20.90;99.90
22212;DHT22;11275;52.488;13.462;2023-06-24T08:45:54;21.00;99.90
22212;DHT22;11275;52.488;13.462;2023-06-24T08:48:39;21.10;99.90
22212;DHT22;11275;52.488;13.462;2023-06-24T08:51:08;21.20;99.90
22212;DHT22;11275;52.488;13.462;2023-06-24T08:53:39;21.30;99.90
22212;DHT22;11275;52.488;13.462;2023-06-24T08:56:07;21.40;99.90
22212;DHT22;11275;52.488;13.462;2023-06-24T08:58:33;21.50;99.90
22212;DHT22;11275;52.488;13.462;2023-06-24T09:01:00;21.50;99.90
22212;DHT22;11275;52.488;13.462;2023-06-24T09:03:26;21.50;99.90
22212;DHT22;11275;52.488;13.462;2023-06-24T09:05:52;21.30;99.90
22212;DHT22;11275;52.488;13.462;2023-06-24T09:08:17;21.30;99.90
22212;DHT22;11275;52.488;13.462;2023-06-24T09:10:43;21.30;99.90
22212;DHT22;11275;52.488;13.462;2023-06-24T09:13:09;21.40;99.90
22212;DHT22;11275;52.488;13.462;2023-06-24T09:15:36;21.30;99.90
22212;DHT22;11275;52.488;13.462;2023-06-24T09:18:03;21.40;99.90
22212;DHT22;11275;52.488;13.462;2023-06-24T09:20:30;21.50;99.90
22212;DHT22;11275;52.488;13.462;2023-06-24T09:23:01;21.60;99.90
22212;DHT22;11275;52.488;13.462;2023-06-24T09:25:27;21.60;99.90
22212;DHT22;11275;52.488;13.462;2023-06-24T09:27:53;21.50;99.90
22212;DHT22;11275;52.488;13.462;2023-06-24T09:30:22;21.50;99.90
22212;DHT22;11275;52.488;13.462;2023-06-24T09:32:49;21.50;99.90
22212;DHT22;11275;52.488;13.462;2023-06-24T09:35:18;21.50;99.90
22212;DHT22;11275;52.488;13.462;2023-06-24T09:37:54;21.40;99.90
22212;DHT22;11275;52.488;13.462;2023-06-24T09:40:20;21.50;99.90
22212;DHT22;11275;52.488;13.462;2023-06-24T09:42:52;21.50;99.90
22212;DHT22;11275;52.488;13.462;2023-06-24T09:45:36;21.50;99.90
22212;DHT22;11275;52.488;13.462;2023-06-24T09:48:03;21.50;99.90
22212;DHT22;11275;52.488;13.462;2023-06-24T09:50:29;21.50;99.90
22212;DHT22;11275;52.488;13.462;2023-06-24T09:52:57;21.60;99.90
22212;DHT22;11275;52.488;13.462;2023-06-24T09:55:24;21.60;99.90
22212;DHT22;11275;52.488;13.462;2023-06-24T09:57:51;21.60;99.90
22212;DHT22;11275;52.488;13.462;2023-06-24T10:00:19;21.60;99.90
22212;DHT22;11275;52.488;13.462;2023-06-24T10:02:45;21.70;99.90
22212;DHT22;11275;52.488;13.462;2023-06-24T10:05:13;21.70;99.90
22212;DHT22;11275;52.488;13.462;2023-06-24T10:07:39;21.70;99.90
22212;DHT22;11275;52.488;13.462;2023-06-24T10:10:06;21.70;99.90
22212;DHT22;11275;52.488;13.462;2023-06-24T10:12:33;21.70;99.90
22212;DHT22;11275;52.488;13.462;2023-06-24T10:15:00;21.80;99.90
22212;DHT22;11275;52.488;13.462;2023-06-24T10:17:26;21.80;99.90
22212;DHT22;11275;52.488;13.462;2023-06-24T10:19:53;21.80;99.90
22212;DHT22;11275;52.488;13.462;2023-06-24T10:22:24;21.80;99.90
22212;DHT22;11275;52.488;13.462;2023-06-24T10:24:52;21.90;99.90
22212;DHT22;11275;52.488;13.462;2023-06-24T10:27:20;21.90;99.90
22212;DHT22;11275;52.488;13.462;2023-06-24T10:29:54;21.80;99.90
22212;DHT22;11275;52.488;13.462;2023-06-24T10:32:23;21.80;99.90
22212;DHT22;11275;52.488;13.462;2023-06-24T10:34:56;21.80;99.90
22212;DHT22;11275;52.488;13.462;2023-06-24T10:37:24;21.80;99.90
22212;DHT22;11275;52.488;13.462;2023-06-24T10:47:28;22.10;99.90
22212;DHT22;11275;52.488;13.462;2023-06-24T10:49:55;22.20;99.90
22212;DHT22;11275;52.488;13.462;2023-06-24T10:52:22;22.20;99.90
22212;DHT22;11275;52.488;13.462;2023-06-24T10:54:49;22.20;99.90
22212;DHT22;11275;52.488;13.462;2023-06-24T10:57:17;22.20;99.90
22212;DHT22;11275;52.488;13.462;2023-06-24T10:59:47;22.20;99.90
22212;DHT22;11275;52.488;13.462;2023-06-24T11:02:18;22.30;99.90
22212;DHT22;11275;52.488;13.462;2023-06-24T11:04:48;22.40;99.90
22212;DHT22;11275;52.488;13.462;2023-06-24T11:07:14;22.40;99.90
22212;DHT22;11275;52.488;13.462;2023-06-24T11:09:41;22.50;99.90
22212;DHT22;11275;52.488;13.462;2023-06-24T11:12:09;22.50;99.90
22212;DHT22;11275;52.488;13.462;2023-06-24T11:14:36;22.50;99.90
22212;DHT22;11275;52.488;13.462;2023-06-24T11:17:03;22.60;99.90
22212;DHT22;11275;52.488;13.462;2023-06-24T11:19:30;22.70;99.90
22212;DHT22;11275;52.488;13.462;2023-06-24T11:21:59;22.70;99.90
22212;DHT22;11275;52.488;13.462;2023-06-24T11:24:28;22.80;99.90
22212;DHT22;11275;52.488;13.462;2023-06-24T11:26:54;22.80;99.90
22212;DHT22;11275;52.488;13.462;2023-06-24T11:29:21;22.80;99.90
22212;DHT22;11275;52.488;13.462;2023-06-24T11:31:46;22.80;99.90
22212;DHT22;11275;52.488;13.462;2023-06-24T11:34:12;22.80;99.90
22212;DHT22;11275;52.488;13.462;2023-06-24T11:36:38;22.90;99.90
22212;DHT22;11275;52.488;13.462;2023-06-24T11:39:03;22.90;99.90
22212;DHT22;11275;52.488;13.462;2023-06-24T11:41:29;22.90;99.90
22212;DHT22;11275;52.488;13.462;2023-06-24T11:43:57;22.90;99.90
22212;DHT22;11275;52.488;13.462;2023-06-24T11:46:33;23.00;99.90
22212;DHT22;11275;52.488;13.462;2023-06-24T11:49:05;23.00;99.90
22212;DHT22;11275;52.488;13.462;2023-06-24T11:51:32;23.10;99.90
22212;DHT22;11275;52.488;13.462;2023-06-24T11:54:05;23.10;99.90
22212;DHT22;11275;52.488;13.462;2023-06-24T11:56:38;23.10;99.90
22212;DHT22;11275;52.488;13.462;2023-06-24T11:59:04;23.20;99.90
22212;DHT22;11275;52.488;13.462;2023-06-24T12:01:34;23.20;99.90
22212;DHT22;11275;52.488;13.462;2023-06-24T12:04:15;23.20;99.90
22212;DHT22;11275;52.488;13.462;2023-06-24T12:06:41;23.20;99.90
22212;DHT22;11275;52.488;13.462;2023-06-24T12:09:10;23.30;99.90
22212;DHT22;11275;52.488;13.462;2023-06-24T12:11:36;23.30;99.90
22212;DHT22;11275;52.488;13.462;2023-06-24T12:14:03;23.40;99.90
22212;DHT22;11275;52.488;13.462;2023-06-24T12:16:29;23.40;99.90
22212;DHT22;11275;52.488;13.462;2023-06-24T12:18:55;23.40;99.90
22212;DHT22;11275;52.488;13.462;2023-06-24T12:21:21;23.40;99.90
22212;DHT22;11275;52.488;13.462;2023-06-24T12:23:47;23.40;99.30
22212;DHT22;11275;52.488;13.462;2023-06-24T12:26:12;23.40;98.90
22212;DHT22;11275;52.488;13.462;2023-06-24T12:28:38;23.40;99.30
22212;DHT22;11275;52.488;13.462;2023-06-24T12:31:04;23.40;99.10
22212;DHT22;11275;52.488;13.462;2023-06-24T12:33:32;23.40;99.10
22212;DHT22;11275;52.488;13.462;2023-06-24T12:35:59;23.50;99.50
22212;DHT22;11275;52.488;13.462;2023-06-24T12:38:24;23.50;99.00
22212;DHT22;11275;52.488;13.462;2023-06-24T12:40:50;23.50;99.50
22212;DHT22;11275;52.488;13.462;2023-06-24T12:43:16;23.60;99.30
22212;DHT22;11275;52.488;13.462;2023-06-24T12:45:41;23.70;98.80
22212;DHT22;11275;52.488;13.462;2023-06-24T12:48:10;23.70;98.70
22212;DHT22;11275;52.488;13.462;2023-06-24T12:50:37;23.70;99.40
22212;DHT22;11275;52.488;13.462;2023-06-24T12:53:02;23.70;99.30
22212;DHT22;11275;52.488;13.462;2023-06-24T12:55:29;23.70;98.70
22212;DHT22;11275;52.488;13.462;2023-06-24T12:57:55;23.70;99.20
22212;DHT22;11275;52.488;13.462;2023-06-24T13:00:21;23.70;99.00
22212;DHT22;11275;52.488;13.462;2023-06-24T13:02:47;23.80;99.20
22212;DHT22;11275;52.488;13.462;2023-06-24T13:05:12;23.80;99.10
22212;DHT22;11275;52.488;13.462;2023-06-24T13:07:38;23.90;99.20
22212;DHT22;11275;52.488;13.462;2023-06-24T13:10:04;23.90;99.20
22212;DHT22;11275;52.488;13.462;2023-06-24T13:12:32;23.90;98.40
22212;DHT22;11275;52.488;13.462;2023-06-24T13:14:57;24.00;98.40
22212;DHT22;11275;52.488;13.462;2023-06-24T13:17:23;24.10;98.40
22212;DHT22;11275;52.488;13.462;2023-06-24T13:19:50;24.10;98.50
22212;DHT22;11275;52.488;13.462;2023-06-24T13:22:16;24.10;98.40
22212;DHT22;11275;52.488;13.462;2023-06-24T13:24:41;24.20;98.20
22212;DHT22;11275;52.488;13.462;2023-06-24T13:27:07;24.30;98.30
22212;DHT22;11275;52.488;13.462;2023-06-24T13:29:33;24.40;98.30
22212;DHT22;11275;52.488;13.462;2023-06-24T13:31:59;24.50;98.20
22212;DHT22;11275;52.488;13.462;2023-06-24T13:34:24;24.50;97.70
22212;DHT22;11275;52.488;13.462;2023-06-24T13:36:50;24.60;97.80
22212;DHT22;11275;52.488;13.462;2023-06-24T13:39:16;24.70;97.90
22212;DHT22;11275;52.488;13.462;2023-06-24T13:41:44;24.80;96.90
22212;DHT22;11275;52.488;13.462;2023-06-24T13:44:10;24.70;95.70
22212;DHT22;11275;52.488;13.462;2023-06-24T13:46:36;24.80;96.40
22212;DHT22;11275;52.488;13.462;2023-06-24T13:49:01;24.80;95.20
22212;DHT22;11275;52.488;13.462;2023-06-24T13:51:27;24.90;95.40
22212;DHT22;11275;52.488;13.462;2023-06-24T13:53:54;25.00;95.00
22212;DHT22;11275;52.488;13.462;2023-06-24T13:56:21;25.10;94.80
22212;DHT22;11275;52.488;13.462;2023-06-24T13:58:48;25.20;96.10
22212;DHT22;11275;52.488;13.462;2023-06-24T14:01:14;25.30;95.50
22212;DHT22;11275;52.488;13.462;2023-06-24T14:03:41;25.30;94.00
22212;DHT22;11275;52.488;13.462;2023-06-24T14:06:07;25.30;94.50
22212;DHT22;11275;52.488;13.462;2023-06-24T14:08:33;25.50;94.40
22212;DHT22;11275;52.488;13.462;2023-06-24T14:10:59;25.60;95.50
22212;DHT22;11275;52.488;13.462;2023-06-24T14:13:25;25.70;95.10
22212;DHT22;11275;52.488;13.462;2023-06-24T14:15:52;25.80;94.60
22212;DHT22;11275;52.488;13.462;2023-06-24T14:18:21;25.80;93.40
22212;DHT22;11275;52.488;13.462;2023-06-24T14:20:47;25.80;94.60
22212;DHT22;11275;52.488;13.462;2023-06-24T14:23:13;26.00;94.20
22212;DHT22;11275;52.488;13.462;2023-06-24T14:25:38;26.10;93.60
22212;DHT22;11275;52.488;13.462;2023-06-24T14:28:05;26.20;94.50
22212;DHT22;11275;52.488;13.462;2023-06-24T14:30:31;26.30;93.90
22212;DHT22;11275;52.488;13.462;2023-06-24T14:32:57;26.40;93.60
22212;DHT22;11275;52.488;13.462;2023-06-24T14:35:22;26.50;93.40
22212;DHT22;11275;52.488;13.462;2023-06-24T14:37:48;26.60;93.40
22212;DHT22;11275;52.488;13.462;2023-06-24T14:40:17;26.60;93.20
22212;DHT22;11275;52.488;13.462;2023-06-24T14:42:42;26.70;93.30
22212;DHT22;11275;52.488;13.462;2023-06-24T14:45:12;26.80;92.60
22212;DHT22;11275;52.488;13.462;2023-06-24T14:47:38;26.90;91.80
22212;DHT22;11275;52.488;13.462;2023-06-24T14:50:04;27.00;92.90
22212;DHT22;11275;52.488;13.462;2023-06-24T14:52:30;27.10;92.50
22212;DHT22;11275;52.488;13.462;2023-06-24T14:54:55;27.20;93.10
22212;DHT22;11275;52.488;13.462;2023-06-24T14:57:21;27.30;92.30
22212;DHT22;11275;52.488;13.462;2023-06-24T15:00:10;27.30;93.60
22212;DHT22;11275;52.488;13.462;2023-06-24T15:02:36;27.50;91.50
22212;DHT22;11275;52.488;13.462;2023-06-24T15:05:05;27.60;92.00
22212;DHT22;11275;52.488;13.462;2023-06-24T15:07:31;27.70;92.10
22212;DHT22;11275;52.488;13.462;2023-06-24T15:09:56;27.70;90.70
22212;DHT22;11275;52.488;13.462;2023-06-24T15:12:22;27.80;90.50
22212;DHT22;11275;52.488;13.462;2023-06-24T15:14:48;27.90;90.30
22212;DHT22;11275;52.488;13.462;2023-06-24T15:17:14;28.00;90.90
22212;DHT22;11275;52.488;13.462;2023-06-24T15:19:40;28.00;90.40
22212;DHT22;11275;52.488;13.462;2023-06-24T15:22:05;28.10;91.20
22212;DHT22;11275;52.488;13.462;2023-06-24T15:24:31;28.00;88.20
22212;DHT22;11275;52.488;13.462;2023-06-24T15:26:58;28.00;90.10
22212;DHT22;11275;52.488;13.462;2023-06-24T15:29:24;28.10;86.30
22212;DHT22;11275;52.488;13.462;2023-06-24T15:31:49;27.90;88.90
22212;DHT22;11275;52.488;13.462;2023-06-24T15:34:15;27.90;87.10